createdAt,value
2022-11-05T00:00:32.105Z,91176.72
2022-11-05T00:03:17.574Z,91186.28
2022-11-05T00:06:05.281Z,91189.41
2022-11-05T00:08:50.619Z,91188.28
2022-11-05T00:11:18.407Z,91183.44
2022-11-05T00:14:11.764Z,91182.94
2022-11-05T00:16:47.420Z,91186.09
2022-11-05T00:19:15.044Z,91186.81
2022-11-05T00:22:00.500Z,91189.81
2022-11-05T00:24:45.630Z,91190.59
2022-11-05T00:27:12.239Z,91188.78
2022-11-05T00:29:38.876Z,91179.56
2022-11-05T00:32:05.643Z,91184.97
2022-11-05T00:34:32.288Z,91168.47
2022-11-05T00:36:59.060Z,91177.72
2022-11-05T00:39:25.738Z,91174.75
2022-11-05T00:42:24.590Z,91176.25
2022-11-05T00:45:03.149Z,91180.38
2022-11-05T00:47:50.447Z,91187.22
2022-11-05T00:50:18.210Z,91180.88
2022-11-05T00:52:57.345Z,91169.81
2022-11-05T00:55:56.737Z,91168.72
2022-11-05T00:58:24.281Z,91172.44
2022-11-05T01:00:53.981Z,91160.97
2022-11-05T01:03:23.223Z,91159.84
2022-11-05T01:05:52.875Z,91168.38
2022-11-05T01:08:21.905Z,91158.81
2022-11-05T01:10:55.097Z,91169.75
2022-11-05T01:13:24.528Z,91163.25
2022-11-05T01:15:51.667Z,91157.94
2022-11-05T01:18:19.846Z,91163.91
2022-11-05T01:20:46.687Z,91158.03
2022-11-05T01:23:14.106Z,91151.31
2022-11-05T01:25:44.756Z,91167.41
2022-11-05T01:28:11.597Z,91154.91
2022-11-05T01:30:38.712Z,91152.44
2022-11-05T01:33:05.759Z,91148.19
2022-11-05T01:35:32.430Z,91139.91
2022-11-05T01:37:59.129Z,91144.97
2022-11-05T01:40:26.542Z,91154.75
2022-11-05T01:42:53.162Z,91146.66
2022-11-05T01:45:27.603Z,91149.41
2022-11-05T01:48:09.429Z,91144.31
2022-11-05T01:50:48.273Z,91141.97
2022-11-05T01:53:51.114Z,91137.59
2022-11-05T01:56:41.223Z,91134.41
2022-11-05T01:59:13.168Z,91132.78
2022-11-05T02:01:39.957Z,91135.88
2022-11-05T02:04:10.336Z,91144.38
2022-11-05T02:06:46.418Z,91135.09
2022-11-05T02:09:20.848Z,91134.28
2022-11-05T02:11:48.525Z,91126.69
2022-11-05T02:14:15.202Z,91134.22
2022-11-05T02:16:48.934Z,91121.06
2022-11-05T02:19:30.396Z,91128.69
2022-11-05T02:22:10.124Z,91121.75
2022-11-05T02:25:15.116Z,91118.31
2022-11-05T02:28:00.199Z,91121.81
2022-11-05T02:30:42.269Z,91125.13
2022-11-05T02:33:20.806Z,91129.72
2022-11-05T02:36:06.448Z,91125.75
2022-11-05T02:38:42.025Z,91128.00
2022-11-05T02:41:12.641Z,91133.81
2022-11-05T02:44:22.308Z,91106.72
2022-11-05T02:46:56.898Z,91124.88
2022-11-05T02:49:39.176Z,91126.88
2022-11-05T02:52:14.835Z,91128.56
2022-11-05T02:54:57.089Z,91134.53
2022-11-05T02:57:24.446Z,91125.56
2022-11-05T03:00:08.828Z,91130.66
2022-11-05T03:02:35.822Z,91133.31
2022-11-05T03:05:03.566Z,91123.94
2022-11-05T03:07:48.586Z,91123.09
2022-11-05T03:10:27.489Z,91125.63
2022-11-05T03:13:09.722Z,91133.59
2022-11-05T03:15:51.526Z,91114.94
2022-11-05T03:18:35.545Z,91121.41
2022-11-05T03:21:25.371Z,91123.31
2022-11-05T03:24:03.581Z,91119.06
2022-11-05T03:26:46.347Z,91118.63
2022-11-05T03:29:19.892Z,91121.91
2022-11-05T03:31:49.498Z,91116.19
2022-11-05T03:34:19.718Z,91118.72
2022-11-05T03:36:52.014Z,91126.75
2022-11-05T03:39:26.750Z,91115.78
2022-11-05T03:41:54.182Z,91115.16
2022-11-05T03:44:27.456Z,91117.13
2022-11-05T03:46:58.761Z,91117.91
2022-11-05T03:49:29.721Z,91116.59
2022-11-05T03:52:05.024Z,91121.59
2022-11-05T03:54:33.017Z,91116.47
2022-11-05T03:57:08.698Z,91122.81
2022-11-05T03:59:46.831Z,91122.03
2022-11-05T04:02:15.671Z,91110.53
2022-11-05T04:04:42.865Z,91105.31
2022-11-05T04:07:29.695Z,91108.84
2022-11-05T04:10:15.770Z,91105.69
2022-11-05T04:13:00.910Z,91106.66
2022-11-05T04:15:29.657Z,91103.34
2022-11-05T04:17:59.048Z,91108.97
2022-11-05T04:20:46.395Z,91115.25
2022-11-05T04:23:31.618Z,91112.28
2022-11-05T04:25:58.295Z,91120.94
2022-11-05T04:28:44.965Z,91115.03
2022-11-05T04:31:12.119Z,91114.28
2022-11-05T04:33:38.735Z,91107.72
2022-11-05T04:36:05.625Z,91113.88
2022-11-05T04:38:32.268Z,91114.34
2022-11-05T04:41:13.723Z,91115.75
2022-11-05T04:43:40.447Z,91113.97
2022-11-05T04:46:08.346Z,91120.78
2022-11-05T04:48:35.181Z,91120.84
2022-11-05T04:51:01.860Z,91129.16
2022-11-05T04:53:28.581Z,91123.59
2022-11-05T04:55:55.354Z,91116.72
2022-11-05T04:58:22.042Z,91112.75
2022-11-05T05:00:50.129Z,91118.44
2022-11-05T05:03:16.765Z,91126.97
2022-11-05T05:05:43.445Z,91128.47
2022-11-05T05:08:10.061Z,91137.06
2022-11-05T05:10:36.928Z,91131.44
2022-11-05T05:13:03.617Z,91136.50
2022-11-05T05:15:30.617Z,91130.13
2022-11-05T05:17:57.386Z,91134.00
2022-11-05T05:20:53.151Z,91137.53
2022-11-05T05:23:19.685Z,91135.47
2022-11-05T05:25:46.317Z,91135.72
2022-11-05T05:28:12.975Z,91133.28
2022-11-05T05:30:39.616Z,91140.09
2022-11-05T05:33:06.248Z,91143.56
2022-11-05T05:35:32.889Z,91140.69
2022-11-05T05:37:59.521Z,91155.28
2022-11-05T05:40:26.226Z,91144.69
2022-11-05T05:42:55.935Z,91142.38
2022-11-05T05:45:22.647Z,91145.00
2022-11-05T05:47:49.348Z,91150.25
2022-11-05T05:50:16.017Z,91150.88
2022-11-05T05:52:42.708Z,91156.78
2022-11-05T05:55:12.610Z,91160.84
2022-11-05T05:57:39.271Z,91137.31
2022-11-05T06:00:06.531Z,91170.38
2022-11-05T06:02:33.432Z,91168.09
2022-11-05T06:05:00.218Z,91170.50
2022-11-05T06:07:26.849Z,91179.75
2022-11-05T06:09:53.440Z,91178.13
2022-11-05T06:12:20.119Z,91173.84
2022-11-05T06:14:46.783Z,91175.28
2022-11-05T06:17:13.931Z,91185.78
2022-11-05T06:19:40.573Z,91183.16
2022-11-05T06:22:07.820Z,91174.25
2022-11-05T06:24:34.544Z,91164.31
2022-11-05T06:27:01.241Z,91182.69
2022-11-05T06:29:27.971Z,91183.59
2022-11-05T06:31:54.599Z,91189.88
2022-11-05T06:34:21.269Z,91184.31
2022-11-05T06:36:47.960Z,91184.53
2022-11-05T06:39:14.647Z,91185.50
2022-11-05T06:44:27.943Z,91181.78
2022-11-05T06:46:54.646Z,91186.16
2022-11-05T06:49:24.734Z,91181.38
2022-11-05T06:51:52.709Z,91176.38
2022-11-05T06:54:19.701Z,91177.84
2022-11-05T06:56:46.372Z,91166.03
2022-11-05T06:59:13.028Z,91168.72
2022-11-05T07:01:39.996Z,91165.78
2022-11-05T07:04:06.914Z,91166.00
2022-11-05T07:06:37.148Z,91160.44
2022-11-05T07:09:04.402Z,91158.38
2022-11-05T07:11:31.297Z,91160.25
2022-11-05T07:13:58.125Z,91152.72
2022-11-05T07:16:27.077Z,91149.59
2022-11-05T07:18:56.089Z,91153.09
2022-11-05T07:21:23.462Z,91144.63
2022-11-05T07:23:50.361Z,91139.22
2022-11-05T07:26:17.242Z,91139.50
2022-11-05T07:28:44.288Z,91133.16
2022-11-05T07:31:10.928Z,91135.41
2022-11-05T07:33:37.658Z,91130.75
2022-11-05T07:36:04.891Z,91125.88
2022-11-05T07:38:31.633Z,91125.41
2022-11-05T07:41:01.668Z,91121.22
2022-11-05T07:43:30.643Z,91113.00
2022-11-05T07:45:57.777Z,91114.50
2022-11-05T07:48:24.439Z,91118.59
2022-11-05T07:50:52.028Z,91110.13
2022-11-05T07:53:20.681Z,91120.41
2022-11-05T07:55:50.532Z,91113.94
2022-11-05T07:58:17.179Z,91119.19
2022-11-05T08:00:44.353Z,91114.16
2022-11-05T08:03:15.519Z,91121.72
2022-11-05T08:05:47.279Z,91112.38
2022-11-05T08:08:16.647Z,91109.94
2022-11-05T08:10:43.820Z,91103.16
2022-11-05T08:13:11.938Z,91113.25
2022-11-05T08:15:39.191Z,91108.56
2022-11-05T08:18:08.915Z,91107.56
2022-11-05T08:20:36.342Z,91120.44
2022-11-05T08:23:02.992Z,91113.81
2022-11-05T08:25:29.949Z,91118.59
2022-11-05T08:27:58.891Z,91114.34
2022-11-05T08:30:25.997Z,91101.69
2022-11-05T08:32:57.541Z,91101.66
2022-11-05T08:35:24.656Z,91101.34
2022-11-05T08:37:51.408Z,91107.81
2022-11-05T08:40:18.092Z,91104.22
2022-11-05T08:42:48.563Z,91109.97
2022-11-05T08:45:15.386Z,91092.56
2022-11-05T08:47:42.078Z,91084.88
2022-11-05T08:50:09.921Z,91089.31
2022-11-05T08:52:40.326Z,91088.47
2022-11-05T08:55:09.997Z,91084.41
2022-11-05T08:57:36.728Z,91086.66
2022-11-05T09:00:04.067Z,91082.09
2022-11-05T09:02:33.006Z,91086.31
2022-11-05T09:04:59.720Z,91090.91
2022-11-05T09:07:26.457Z,91083.19
2022-11-05T09:09:53.173Z,91076.22
2022-11-05T09:12:19.888Z,91082.06
2022-11-05T09:14:46.553Z,91102.88
2022-11-05T09:17:17.816Z,91091.28
2022-11-05T09:19:44.900Z,91084.66
2022-11-05T09:22:12.941Z,91067.28
2022-11-05T09:24:40.949Z,91092.16
2022-11-05T09:27:10.370Z,91083.13
2022-11-05T09:29:38.048Z,91075.84
2022-11-05T09:32:05.059Z,91097.16
2022-11-05T09:34:32.987Z,91078.28
2022-11-05T09:37:00.094Z,91097.44
2022-11-05T09:39:26.933Z,91080.78
2022-11-05T09:41:59.681Z,91084.16
2022-11-05T09:44:43.909Z,91077.97
2022-11-05T09:47:17.546Z,91070.41
2022-11-05T09:49:52.524Z,91074.66
2022-11-05T09:52:20.896Z,91079.34
2022-11-05T09:54:50.236Z,91081.41
2022-11-05T09:57:21.640Z,91071.88
2022-11-05T09:59:54.610Z,91074.91
2022-11-05T10:02:26.024Z,91063.84
2022-11-05T10:04:56.584Z,91075.25
2022-11-05T10:07:29.601Z,91081.06
2022-11-05T10:10:03.508Z,91061.31
2022-11-05T10:12:46.200Z,91061.38
2022-11-05T10:15:19.585Z,91064.34
2022-11-05T10:17:59.026Z,91059.88
2022-11-05T10:20:38.809Z,91056.81
2022-11-05T10:23:28.460Z,91053.41
2022-11-05T10:26:00.283Z,91056.97
2022-11-05T10:28:29.864Z,91054.03
2022-11-05T10:31:03.076Z,91051.59
2022-11-05T10:33:39.836Z,91039.41
2022-11-05T10:36:11.363Z,91043.66
2022-11-05T10:38:38.132Z,91047.16
2022-11-05T10:41:04.906Z,91038.91
2022-11-05T10:43:36.473Z,91042.47
2022-11-05T10:46:24.945Z,91067.38
2022-11-05T10:49:04.125Z,91068.22
2022-11-05T10:51:32.234Z,91062.63
2022-11-05T10:54:06.236Z,91068.94
2022-11-05T10:56:37.732Z,91062.47
2022-11-05T10:59:18.862Z,91056.47
2022-11-05T11:01:46.515Z,91039.59
2022-11-05T11:04:22.956Z,91049.28
2022-11-05T11:06:58.945Z,91037.53
2022-11-05T11:09:32.894Z,91054.47
2022-11-05T11:12:07.606Z,91040.44
2022-11-05T11:14:35.319Z,91042.03
2022-11-05T11:17:27.516Z,91035.78
2022-11-05T11:20:27.983Z,91051.72
2022-11-05T11:23:02.025Z,91045.84
2022-11-05T11:25:35.909Z,91037.72
2022-11-05T11:28:07.223Z,91023.31
2022-11-05T11:30:35.474Z,91035.22
2022-11-05T11:33:09.501Z,91027.00
2022-11-05T11:35:39.491Z,91033.72
2022-11-05T11:38:07.321Z,91021.91
2022-11-05T11:40:38.042Z,91042.59
2022-11-05T11:43:14.487Z,91041.84
2022-11-05T11:45:50.963Z,91026.03
2022-11-05T11:48:22.956Z,91023.94
2022-11-05T11:53:35.438Z,91020.34
2022-11-05T11:56:09.685Z,91024.78
2022-11-05T11:58:41.304Z,91033.66
2022-11-05T12:01:36.857Z,91023.66
2022-11-05T12:04:10.267Z,91036.84
2022-11-05T12:06:50.561Z,91024.03
2022-11-05T12:09:56.047Z,91022.81
2022-11-05T12:12:49.325Z,91009.81
2022-11-05T12:15:51.225Z,91005.84
2022-11-05T12:18:39.896Z,91024.22
2022-11-05T12:21:48.034Z,91016.75
2022-11-05T12:25:01.105Z,91017.63
2022-11-05T12:27:46.702Z,91008.47
2022-11-05T12:30:19.153Z,91009.00
2022-11-05T12:33:04.675Z,91011.97
2022-11-05T12:35:57.588Z,91008.56
2022-11-05T12:38:52.758Z,91005.47
2022-11-05T12:41:43.155Z,91016.00
2022-11-05T12:44:29.204Z,91009.72
2022-11-05T12:47:33.876Z,91016.44
2022-11-05T12:50:12.643Z,91009.19
2022-11-05T12:52:58.187Z,91013.50
2022-11-05T12:55:27.361Z,91014.97
2022-11-05T12:58:03.891Z,91020.53
2022-11-05T13:00:38.735Z,91002.25
2022-11-05T13:03:26.312Z,91002.28
2022-11-05T13:06:01.475Z,91010.06
2022-11-05T13:08:56.686Z,91007.38
2022-11-05T13:11:26.587Z,91007.84
2022-11-05T13:14:23.519Z,91008.31
2022-11-05T13:16:55.870Z,90999.41
2022-11-05T13:19:31.226Z,91011.84
2022-11-05T13:22:14.233Z,91010.69
2022-11-05T13:24:54.573Z,91019.22
2022-11-05T13:27:48.463Z,91022.94
2022-11-05T13:30:28.324Z,91021.47
2022-11-05T13:33:10.951Z,91006.81
2022-11-05T13:36:35.050Z,91026.03
2022-11-05T13:39:21.542Z,91039.09
2022-11-05T13:42:06.352Z,91025.38
2022-11-05T13:45:08.036Z,91024.44
2022-11-05T13:48:00.862Z,91032.41
2022-11-05T13:51:09.491Z,91020.38
2022-11-05T13:53:55.013Z,91026.34
2022-11-05T13:56:27.363Z,91041.72
2022-11-05T13:59:00.754Z,91035.81
2022-11-05T14:01:45.608Z,91035.38
2022-11-05T14:05:06.403Z,91038.75
2022-11-05T14:07:44.533Z,91009.22
2022-11-05T14:10:26.799Z,91038.19
2022-11-05T14:12:56.659Z,91041.38
2022-11-05T14:15:32.694Z,91038.81
2022-11-05T14:18:01.178Z,91045.81
2022-11-05T14:20:31.192Z,91047.38
2022-11-05T14:23:26.108Z,91043.16
2022-11-05T14:26:33.176Z,91030.88
2022-11-05T14:29:03.251Z,91049.19
2022-11-05T14:32:07.084Z,91051.53
2022-11-05T14:34:43.261Z,91056.25
2022-11-05T14:37:09.857Z,91052.41
2022-11-05T14:39:37.158Z,91053.22
2022-11-05T14:42:17.715Z,91047.34
2022-11-05T14:45:19.827Z,91045.34
2022-11-05T14:47:59.217Z,91031.97
2022-11-05T14:50:33.754Z,91036.03
2022-11-05T14:53:25.863Z,91041.34
2022-11-05T14:56:22.634Z,91038.31
2022-11-05T14:58:49.279Z,91032.19
2022-11-05T15:01:15.985Z,91030.19
2022-11-05T15:03:46.422Z,91018.63
2022-11-05T15:06:32.198Z,91025.69
2022-11-05T15:09:29.041Z,91036.25
2022-11-05T15:11:55.807Z,91039.97
2022-11-05T15:14:42.545Z,91021.34
2022-11-05T15:17:33.245Z,91032.84
2022-11-05T15:20:23.925Z,91029.13
2022-11-05T15:22:59.696Z,91036.22
2022-11-05T15:26:04.030Z,91037.56
2022-11-05T15:28:38.925Z,91046.25
2022-11-05T15:31:14.746Z,91048.78
2022-11-05T15:33:43.191Z,91039.31
2022-11-05T15:36:29.203Z,91039.03
2022-11-05T15:39:23.321Z,91038.31
2022-11-05T15:41:45.447Z,91044.84
2022-11-05T15:44:46.221Z,91051.59
2022-11-05T15:47:20.935Z,91056.78
2022-11-05T15:49:53.597Z,91038.28
2022-11-05T15:52:23.251Z,91049.72
2022-11-05T15:55:14.965Z,91057.31
2022-11-05T15:57:51.002Z,91058.63
2022-11-05T16:00:27.054Z,91056.88
2022-11-05T16:02:55.513Z,91055.31
2022-11-05T16:05:24.321Z,91053.19
2022-11-05T16:07:51.458Z,91065.22
2022-11-05T16:10:25.290Z,91071.41
2022-11-05T16:12:52.341Z,91078.19
2022-11-05T16:15:23.288Z,91082.44
2022-11-05T16:17:53.561Z,91080.69
2022-11-05T16:20:23.445Z,91056.69
2022-11-05T16:22:54.056Z,91079.94
2022-11-05T16:25:37.063Z,91085.91
2022-11-05T16:28:06.751Z,91076.34
2022-11-05T16:30:33.628Z,91085.78
2022-11-05T16:33:06.277Z,91089.56
2022-11-05T16:35:33.268Z,91092.56
2022-11-05T16:38:02.060Z,91100.25
2022-11-05T16:40:29.593Z,91102.41
2022-11-05T16:43:09.748Z,91097.63
2022-11-05T16:45:41.457Z,91110.03
2022-11-05T16:48:12.128Z,91115.25
2022-11-05T16:50:39.533Z,91101.72
2022-11-05T16:53:06.793Z,91117.50
2022-11-05T16:55:37.880Z,91107.03
2022-11-05T16:58:04.865Z,91116.44
2022-11-05T17:00:31.576Z,91118.03
2022-11-05T17:02:58.419Z,91120.63
2022-11-05T17:05:31.268Z,91124.47
2022-11-05T17:07:58.665Z,91123.34
2022-11-05T17:10:26.335Z,91132.06
2022-11-05T17:12:54.227Z,91126.03
2022-11-05T17:15:23.376Z,91148.59
2022-11-05T17:17:51.051Z,91141.09
2022-11-05T17:20:34.991Z,91138.47
2022-11-05T17:23:13.452Z,91152.75
2022-11-05T17:25:41.388Z,91148.28
2022-11-05T17:28:10.336Z,91139.97
2022-11-05T17:30:41.187Z,91148.69
2022-11-05T17:33:09.878Z,91144.13
2022-11-05T17:35:40.781Z,91134.75
2022-11-05T17:38:08.524Z,91141.91
2022-11-05T17:40:36.679Z,91147.94
2022-11-05T17:43:04.952Z,91152.44
2022-11-05T17:45:32.929Z,91152.44
2022-11-05T17:48:00.495Z,91138.94
2022-11-05T17:50:27.508Z,91156.59
2022-11-05T17:52:54.439Z,91141.91
2022-11-05T17:55:21.667Z,91152.09
2022-11-05T17:57:50.794Z,91153.97
2022-11-05T18:00:24.313Z,91165.19
2022-11-05T18:02:53.559Z,91154.69
2022-11-05T18:05:22.330Z,91147.19
2022-11-05T18:07:50.393Z,91157.72
2022-11-05T18:10:17.524Z,91150.19
2022-11-05T18:12:44.587Z,91147.94
2022-11-05T18:15:12.683Z,91143.47
2022-11-05T18:17:40.283Z,91142.31
2022-11-05T18:20:14.216Z,91143.41
2022-11-05T18:22:45.142Z,91148.69
2022-11-05T18:25:13.702Z,91144.19
2022-11-05T18:27:40.923Z,91142.66
2022-11-05T18:30:09.133Z,91143.03
2022-11-05T18:32:36.225Z,91143.06
2022-11-05T18:35:03.065Z,91144.19
2022-11-05T18:37:29.768Z,91137.41
2022-11-05T18:39:56.410Z,91146.81
2022-11-05T18:42:23.250Z,91145.72
2022-11-05T18:44:49.916Z,91140.06
2022-11-05T18:47:16.598Z,91144.91
2022-11-05T18:49:43.387Z,91141.22
2022-11-05T18:52:10.089Z,91138.19
2022-11-05T18:54:36.839Z,91134.41
2022-11-05T18:57:03.600Z,91140.84
2022-11-05T18:59:39.513Z,91141.94
2022-11-05T19:02:08.888Z,91146.09
2022-11-05T19:04:37.296Z,91146.06
2022-11-05T19:07:05.340Z,91141.91
2022-11-05T19:09:33.829Z,91144.19
2022-11-05T19:12:00.926Z,91150.94
2022-11-05T19:14:28.015Z,91150.53
2022-11-05T19:16:54.677Z,91144.16
2022-11-05T19:19:21.586Z,91146.81
2022-11-05T19:21:48.261Z,91146.44
2022-11-05T19:24:17.944Z,91147.94
2022-11-05T19:26:44.788Z,91152.41
2022-11-05T19:29:11.681Z,91155.81
2022-11-05T19:31:38.728Z,91146.44
2022-11-05T19:34:06.007Z,91150.16
2022-11-05T19:36:33.587Z,91153.16
2022-11-05T19:39:02.483Z,91158.38
2022-11-05T19:41:29.232Z,91159.16
2022-11-05T19:43:58.107Z,91151.25
2022-11-05T19:46:25.772Z,91147.50
2022-11-05T19:48:52.547Z,91152.00
2022-11-05T19:51:25.298Z,91127.53
2022-11-05T19:53:52.988Z,91143.28
2022-11-05T19:56:25.299Z,91147.84
2022-11-05T19:58:53.398Z,91147.84
2022-11-05T20:01:22.052Z,91152.41
2022-11-05T20:03:49.337Z,91150.50
2022-11-05T20:06:20.287Z,91152.38
2022-11-05T20:09:19.518Z,91158.75
2022-11-05T20:11:39.313Z,91153.13
2022-11-05T20:14:07.112Z,91159.53
2022-11-05T20:16:38.269Z,91162.16
2022-11-05T20:19:07.440Z,91160.28
2022-11-05T20:21:35.089Z,91167.41
2022-11-05T20:24:02.561Z,91162.94
2022-11-05T20:26:30.027Z,91163.31
2022-11-05T20:28:56.733Z,91165.94
2022-11-05T20:31:27.523Z,91159.88
2022-11-05T20:33:54.577Z,91160.66
2022-11-05T20:36:23.093Z,91166.28
2022-11-05T20:38:51.455Z,91166.31
2022-11-05T20:41:18.973Z,91159.56
2022-11-05T20:43:46.883Z,91164.44
2022-11-05T20:46:16.887Z,91164.81
2022-11-05T20:48:44.595Z,91163.69
2022-11-05T20:51:15.747Z,91165.19
2022-11-05T20:53:43.394Z,91174.94
2022-11-05T20:56:20.079Z,91170.44
2022-11-05T20:58:47.479Z,91165.13
2022-11-05T21:01:16.658Z,91172.28
2022-11-05T21:03:45.414Z,91178.66
2022-11-05T21:06:13.433Z,91181.66
2022-11-05T21:08:40.192Z,91173.78
2022-11-05T21:11:07.390Z,91177.97
2022-11-05T21:13:34.787Z,91180.59
2022-11-05T21:16:02.085Z,91184.31
2022-11-05T21:18:31.402Z,91186.94
2022-11-05T21:21:00.520Z,91190.72
2022-11-05T21:23:28.400Z,91189.22
2022-11-05T21:25:55.474Z,91199.69
2022-11-05T21:28:22.227Z,91192.56
2022-11-05T21:30:49.261Z,91173.03
2022-11-05T21:33:17.864Z,91197.41
2022-11-05T21:35:47.943Z,91194.38
2022-11-05T21:38:16.671Z,91195.13
2022-11-05T21:40:44.398Z,91198.91
2022-11-05T21:43:12.029Z,91201.13
2022-11-05T21:45:40.152Z,91198.13
2022-11-05T21:48:07.826Z,91199.69
2022-11-05T21:50:54.137Z,91190.28
2022-11-05T21:53:39.448Z,91195.16
2022-11-05T21:56:26.720Z,91188.44
2022-11-05T21:59:11.758Z,91186.56
2022-11-05T22:01:38.589Z,91188.38
2022-11-05T22:04:05.273Z,91188.34
2022-11-05T22:06:35.025Z,91184.53
2022-11-05T22:09:02.227Z,91180.03
2022-11-05T22:11:28.856Z,91177.06
2022-11-05T22:13:55.544Z,91178.22
2022-11-05T22:16:22.147Z,91174.09
2022-11-05T22:18:48.821Z,91178.97
2022-11-05T22:21:18.297Z,91179.56
2022-11-05T22:23:45.092Z,91179.91
2022-11-05T22:26:11.813Z,91175.44
2022-11-05T22:28:38.422Z,91176.28
2022-11-05T22:31:12.024Z,91166.50
2022-11-05T22:33:38.740Z,91167.97
2022-11-05T22:36:05.746Z,91172.50
2022-11-05T22:38:32.462Z,91164.25
2022-11-05T22:40:59.095Z,91171.75
2022-11-05T22:43:25.759Z,91176.03
2022-11-05T22:45:52.416Z,91168.63
2022-11-05T22:48:19.040Z,91157.44
2022-11-05T22:50:45.740Z,91147.28
2022-11-05T22:53:12.381Z,91167.09
2022-11-05T22:55:39.815Z,91164.91
2022-11-05T22:58:06.469Z,91163.38
2022-11-05T23:00:36.216Z,91156.97
2022-11-05T23:03:03.253Z,91169.31
2022-11-05T23:05:30.123Z,91153.63
2022-11-05T23:08:15.647Z,91155.44
2022-11-05T23:11:01.083Z,91149.50
2022-11-05T23:13:27.764Z,91151.34
2022-11-05T23:16:12.717Z,91156.53
2022-11-05T23:19:02.446Z,91152.09
2022-11-05T23:21:47.356Z,91141.66
2022-11-05T23:24:14.304Z,91148.44
2022-11-05T23:26:50.057Z,91150.69
2022-11-05T23:29:27.316Z,91150.69
2022-11-05T23:32:13.266Z,91152.97
2022-11-05T23:34:40.281Z,91145.50
2022-11-05T23:37:25.871Z,91147.38
2022-11-05T23:39:53.972Z,91153.28
2022-11-05T23:42:39.491Z,91148.41
2022-11-05T23:45:25.079Z,91145.34
2022-11-05T23:48:10.497Z,91150.53
2022-11-05T23:50:39.923Z,91145.34
2022-11-05T23:53:08.766Z,91143.09
2022-11-05T23:55:36.251Z,91142.28
2022-11-05T23:58:02.946Z,91146.09
